createdAt,value
2019-05-14T00:02:02.555Z,100200.58
2019-05-14T00:04:33.025Z,100207.23
2019-05-14T00:07:05.407Z,100199.20
2019-05-14T00:09:36.637Z,100199.17
2019-05-14T00:12:08.450Z,100195.27
2019-05-14T00:14:43.210Z,100132.03
2019-05-14T00:17:12.695Z,100195.77
2019-05-14T00:19:44.925Z,100188.84
2019-05-14T00:22:16.332Z,100187.97
2019-05-14T00:24:47.838Z,100184.41
2019-05-14T00:27:21.698Z,100178.39
2019-05-14T00:29:54.664Z,100181.87
2019-05-14T00:32:26.110Z,100143.41
2019-05-14T00:34:57.590Z,100173.14
2019-05-14T00:37:29.069Z,100174.55
2019-05-14T00:40:01.281Z,100174.39
2019-05-14T00:42:44.993Z,100167.48
2019-05-14T00:45:17.353Z,100167.42
2019-05-14T00:47:48.886Z,100162.34
2019-05-14T00:50:22.571Z,100161.88
2019-05-14T00:52:54.407Z,100158.66
2019-05-14T00:55:26.072Z,100159.16
2019-05-14T00:57:57.678Z,100148.71
2019-05-14T01:00:31.255Z,100148.34
2019-05-14T01:03:02.346Z,100139.67
2019-05-14T01:05:33.965Z,100145.36
2019-05-14T01:08:05.781Z,100134.41
2019-05-14T01:10:37.376Z,100134.36
2019-05-14T01:13:11.109Z,100138.80
2019-05-14T01:15:43.111Z,100132.78
2019-05-14T01:18:14.644Z,100138.97
2019-05-14T01:20:46.318Z,100137.40
2019-05-14T01:23:17.966Z,100136.03
2019-05-14T01:25:51.671Z,100137.37
2019-05-14T01:28:23.372Z,100133.20
2019-05-14T01:30:54.758Z,100138.07
2019-05-14T01:33:26.497Z,100139.12
2019-05-14T01:35:58.358Z,100132.37
2019-05-14T01:38:31.440Z,100134.19
2019-05-14T01:41:03.598Z,100121.53
2019-05-14T01:43:35.069Z,100127.86
2019-05-14T01:46:07.441Z,100126.55
2019-05-14T01:48:38.885Z,100124.06
2019-05-14T01:51:12.065Z,100129.75
2019-05-14T01:53:43.596Z,100122.31
2019-05-14T01:56:15.329Z,100119.83
2019-05-14T01:58:48.894Z,100119.42
2019-05-14T02:01:21.876Z,100108.19
2019-05-14T02:03:53.742Z,100096.31
2019-05-14T02:06:25.333Z,100108.18
2019-05-14T02:08:56.854Z,100105.56
2019-05-14T02:11:28.660Z,100115.66
2019-05-14T02:14:02.246Z,100111.87
2019-05-14T02:16:34.079Z,100103.64
2019-05-14T02:19:05.659Z,100102.02
2019-05-14T02:21:36.868Z,100101.20
2019-05-14T02:24:11.304Z,100101.52
2019-05-14T02:26:47.328Z,100087.23
2019-05-14T02:29:18.667Z,100086.80
2019-05-14T02:31:50.546Z,100083.28
2019-05-14T02:34:22.349Z,100079.58
2019-05-14T02:36:53.948Z,100080.66
2019-05-14T02:39:28.997Z,100076.98
2019-05-14T02:41:59.189Z,100079.54
2019-05-14T02:44:31.023Z,100075.60
2019-05-14T02:47:02.598Z,100075.28
2019-05-14T02:49:39.300Z,100074.08
2019-05-14T02:52:10.278Z,100080.17
2019-05-14T02:54:42.138Z,100081.56
2019-05-14T02:57:15.654Z,100080.45
2019-05-14T02:59:50.211Z,100077.60
2019-05-14T03:02:20.910Z,100078.67
2019-05-14T03:04:52.586Z,100083.53
2019-05-14T03:07:24.100Z,100078.37
2019-05-14T03:09:59.171Z,100077.30
2019-05-14T03:12:30.302Z,100081.37
2019-05-14T03:15:14.506Z,100080.86
2019-05-14T03:17:49.398Z,100073.55
2019-05-14T03:20:21.371Z,100070.73
2019-05-14T03:23:03.155Z,100073.36
2019-05-14T03:25:25.994Z,100067.80
2019-05-14T03:27:59.958Z,100070.94
2019-05-14T03:30:32.900Z,100045.54
2019-05-14T03:33:04.948Z,100071.32
2019-05-14T03:35:44.623Z,100078.05
2019-05-14T03:38:10.159Z,100065.36
2019-05-14T03:40:41.534Z,100073.88
2019-05-14T03:43:12.833Z,100062.86
2019-05-14T03:45:49.612Z,100065.46
2019-05-14T03:48:20.106Z,100073.63
2019-05-14T03:50:51.443Z,100078.69
2019-05-14T03:53:22.855Z,100076.06
2019-05-14T03:55:54.221Z,100071.06
2019-05-14T03:58:30.158Z,100066.28
2019-05-14T04:01:02.105Z,100064.90
2019-05-14T04:03:34.293Z,100065.91
2019-05-14T04:06:05.836Z,100064.75
2019-05-14T04:08:39.204Z,100071.00
2019-05-14T04:11:14.717Z,100060.11
2019-05-14T04:13:50.519Z,100063.98
2019-05-14T04:16:23.693Z,100066.28
2019-05-14T04:18:59.223Z,100072.30
2019-05-14T04:21:30.654Z,100060.29
2019-05-14T04:24:02.417Z,100066.80
2019-05-14T04:26:53.099Z,100055.92
2019-05-14T04:29:10.280Z,100066.05
2019-05-14T04:31:43.582Z,100061.19
2019-05-14T04:34:19.322Z,100062.61
2019-05-14T04:36:50.470Z,100065.89
2019-05-14T04:39:22.654Z,100051.61
2019-05-14T04:41:53.949Z,100054.64
2019-05-14T04:44:25.615Z,100053.45
2019-05-14T04:47:20.233Z,100043.31
2019-05-14T04:49:39.563Z,100050.25
2019-05-14T04:52:10.417Z,100046.90
2019-05-14T04:54:43.037Z,100050.30
2019-05-14T04:57:14.420Z,100050.34
2019-05-14T04:59:49.601Z,100060.00
2019-05-14T05:02:21.166Z,100051.97
2019-05-14T05:04:52.416Z,100054.20
2019-05-14T05:07:23.686Z,100052.79
2019-05-14T05:09:55.278Z,100045.64
2019-05-14T05:12:29.415Z,100051.63
2019-05-14T05:14:59.781Z,100052.96
2019-05-14T05:17:42.988Z,100060.13
2019-05-14T05:20:14.942Z,100057.92
2019-05-14T05:22:48.379Z,100048.99
2019-05-14T05:25:19.291Z,100044.58
2019-05-14T05:27:50.796Z,100045.06
2019-05-14T05:30:22.159Z,100048.34
2019-05-14T05:32:53.607Z,100044.86
2019-05-14T05:35:24.829Z,100045.18
2019-05-14T05:37:58.296Z,100048.79
2019-05-14T05:40:29.807Z,100035.70
2019-05-14T05:43:05.157Z,100040.32
2019-05-14T05:45:38.114Z,100031.13
2019-05-14T05:48:09.413Z,100038.64
2019-05-14T05:50:40.686Z,100035.89
2019-05-14T05:53:11.911Z,100035.28
2019-05-14T05:55:44.336Z,100036.95
2019-05-14T05:58:16.015Z,100042.56
2019-05-14T06:00:49.890Z,100039.08
2019-05-14T06:03:21.619Z,100027.20
2019-05-14T06:05:53.864Z,100026.50
2019-05-14T06:08:28.056Z,100028.13
2019-05-14T06:10:59.505Z,100024.59
2019-05-14T06:13:31.268Z,100027.97
2019-05-14T06:16:05.258Z,100020.20
2019-05-14T06:18:39.293Z,100023.67
2019-05-14T06:21:11.020Z,100020.69
2019-05-14T06:23:43.081Z,100017.22
2019-05-14T06:26:14.826Z,100017.63
2019-05-14T06:28:48.740Z,100022.77
2019-05-14T06:31:20.733Z,100012.69
2019-05-14T06:33:52.989Z,100012.33
2019-05-14T06:36:29.104Z,100004.52
2019-05-14T06:39:00.484Z,100004.24
2019-05-14T06:41:31.977Z,100002.44
2019-05-14T06:44:03.382Z,100004.22
2019-05-14T06:46:38.927Z,99997.27
2019-05-14T06:49:10.114Z,99991.53
2019-05-14T06:51:41.818Z,99997.73
2019-05-14T06:54:13.170Z,99989.20
2019-05-14T06:56:44.645Z,99990.51
2019-05-14T06:59:18.241Z,99989.75
2019-05-14T07:01:49.749Z,99984.50
2019-05-14T07:04:21.326Z,99981.13
2019-05-14T07:06:54.568Z,99983.76
2019-05-14T07:09:28.765Z,99982.05
2019-05-14T07:12:00.789Z,99981.24
2019-05-14T07:14:34.740Z,99987.30
2019-05-14T07:17:08.865Z,99984.06
2019-05-14T07:19:39.690Z,99985.67
2019-05-14T07:22:12.916Z,99975.53
2019-05-14T07:24:49.372Z,99975.23
2019-05-14T07:27:22.899Z,99973.58
2019-05-14T07:29:54.329Z,99971.85
2019-05-14T07:32:28.544Z,99975.44
2019-05-14T07:34:59.711Z,99976.08
2019-05-14T07:37:31.723Z,99968.52
2019-05-14T07:40:13.296Z,99971.98
2019-05-14T07:42:48.737Z,99971.64
2019-05-14T07:45:19.905Z,99959.52
2019-05-14T07:47:51.196Z,99953.70
2019-05-14T07:52:54.314Z,99948.53
2019-05-14T07:55:25.202Z,99943.52
2019-05-14T07:57:58.741Z,99942.54
2019-05-14T08:00:29.084Z,99940.48
2019-05-14T08:03:01.237Z,99946.17
2019-05-14T08:05:32.795Z,99941.65
2019-05-14T08:08:04.351Z,99944.75
2019-05-14T08:10:39.073Z,99941.00
2019-05-14T08:13:09.949Z,99938.86
2019-05-14T08:15:41.184Z,99938.67
2019-05-14T08:18:14.367Z,99931.52
2019-05-14T08:20:49.296Z,99918.64
2019-05-14T08:23:20.648Z,99933.10
2019-05-14T08:25:51.954Z,99924.86
2019-05-14T08:30:53.822Z,99915.67
2019-05-14T08:33:25.206Z,99918.63
2019-05-14T08:35:58.201Z,99909.44
2019-05-14T08:38:32.024Z,99906.98
2019-05-14T08:41:08.196Z,99906.24
2019-05-14T08:43:39.880Z,99898.80
2019-05-14T08:46:12.927Z,99903.78
2019-05-14T08:48:44.407Z,99897.94
2019-05-14T08:51:18.595Z,99900.48
2019-05-14T08:53:50.766Z,99900.37
2019-05-14T08:56:22.596Z,99902.16
2019-05-14T08:58:55.266Z,99902.11
2019-05-14T09:01:29.178Z,99892.72
2019-05-14T09:03:59.975Z,99909.09
2019-05-14T09:06:31.483Z,99902.63
2019-05-14T09:09:04.794Z,99907.06
2019-05-14T09:11:38.738Z,99905.22
2019-05-14T09:14:11.253Z,99905.19
2019-05-14T09:16:47.732Z,99908.30
2019-05-14T09:19:16.210Z,99900.33
2019-05-14T09:21:50.356Z,99894.83
2019-05-14T09:24:24.281Z,99892.55
2019-05-14T09:26:59.019Z,99884.02
2019-05-14T09:29:31.539Z,99884.98
2019-05-14T09:32:03.223Z,99885.98
2019-05-14T09:34:35.810Z,99869.16
2019-05-14T09:37:08.767Z,99851.88
2019-05-14T09:39:40.842Z,99846.76
2019-05-14T09:42:12.260Z,99862.46
2019-05-14T09:44:46.037Z,99860.70
2019-05-14T09:47:19.044Z,99861.75
2019-05-14T09:49:51.025Z,99855.31
2019-05-14T09:52:22.300Z,99858.89
2019-05-14T09:54:55.535Z,99850.83
2019-05-14T09:57:28.237Z,99847.77
2019-05-14T10:00:00.523Z,99858.50
2019-05-14T10:02:42.929Z,99844.64
2019-05-14T10:05:19.488Z,99695.28
2019-05-14T10:07:51.791Z,99839.78
2019-05-14T10:10:24.183Z,99828.76
2019-05-14T10:12:57.254Z,99830.05
2019-05-14T10:15:28.916Z,99828.73
2019-05-14T10:18:00.651Z,99833.29
2019-05-14T10:20:41.121Z,99827.42
2019-05-14T10:23:05.017Z,99821.26
2019-05-14T10:25:42.220Z,99818.61
2019-05-14T10:28:11.792Z,99822.39
2019-05-14T10:30:45.108Z,99814.98
2019-05-14T10:33:18.138Z,99812.19
2019-05-14T10:35:51.495Z,99804.22
2019-05-14T10:38:23.269Z,99807.16
2019-05-14T10:40:54.740Z,99801.88
2019-05-14T10:43:28.892Z,99801.13
2019-05-14T10:45:59.679Z,99799.31
2019-05-14T10:48:31.406Z,99793.28
2019-05-14T10:51:05.123Z,99792.10
2019-05-14T10:53:36.843Z,99801.67
2019-05-14T10:56:09.844Z,99783.30
2019-05-14T10:58:41.492Z,99788.52
2019-05-14T11:01:15.321Z,99780.03
2019-05-14T11:03:50.412Z,99781.35
2019-05-14T11:06:22.270Z,99775.69
2019-05-14T11:08:53.520Z,99776.39
2019-05-14T11:11:24.879Z,99770.59
2019-05-14T11:13:56.503Z,99768.98
2019-05-14T11:16:28.453Z,99759.98
2019-05-14T11:19:00.431Z,99779.14
2019-05-14T11:21:31.902Z,99758.50
2019-05-14T11:24:03.317Z,99759.60
2019-05-14T11:26:34.830Z,99761.70
2019-05-14T11:29:06.232Z,99746.83
2019-05-14T11:31:39.081Z,99759.84
2019-05-14T11:34:11.024Z,99756.50
2019-05-14T11:36:45.360Z,99751.13
2019-05-14T11:39:18.065Z,99760.77
2019-05-14T11:41:49.946Z,99743.28
2019-05-14T11:44:21.448Z,99743.52
2019-05-14T11:46:58.177Z,99737.84
2019-05-14T11:49:26.098Z,99740.63
2019-05-14T11:52:06.851Z,99733.59
2019-05-14T11:54:31.038Z,99724.49
2019-05-14T11:57:02.406Z,99746.50
2019-05-14T11:59:34.069Z,99747.69
2019-05-14T12:02:09.440Z,99735.23
2019-05-14T12:04:41.146Z,99736.84
2019-05-14T12:07:12.936Z,99731.20
2019-05-14T12:09:44.394Z,99710.17
2019-05-14T12:12:18.828Z,99729.88
2019-05-14T12:14:49.320Z,99723.45
2019-05-14T12:17:20.928Z,99729.25
2019-05-14T12:19:52.502Z,99731.00
2019-05-14T12:22:23.815Z,99717.22
2019-05-14T12:24:55.715Z,99715.16
2019-05-14T12:27:28.898Z,99712.28
2019-05-14T12:30:00.552Z,99707.01
2019-05-14T12:32:34.257Z,99713.50
2019-05-14T12:35:19.801Z,99713.32
2019-05-14T12:37:50.696Z,99716.29
2019-05-14T12:40:21.883Z,99709.27
2019-05-14T12:42:53.278Z,99701.64
2019-05-14T12:45:24.539Z,99700.47
2019-05-14T12:47:58.455Z,99709.64
2019-05-14T12:50:29.295Z,99706.11
2019-05-14T12:53:00.631Z,99705.57
2019-05-14T12:55:32.987Z,99703.70
2019-05-14T12:58:04.202Z,99692.88
2019-05-14T13:00:39.344Z,99710.69
2019-05-14T13:03:10.873Z,99701.52
2019-05-14T13:05:42.763Z,99687.21
2019-05-14T13:08:14.247Z,99692.72
2019-05-14T13:10:45.822Z,99704.70
2019-05-14T13:13:19.576Z,99700.84
2019-05-14T13:16:28.342Z,99698.16
2019-05-14T13:19:09.250Z,99695.83
2019-05-14T13:22:08.826Z,99693.59
2019-05-14T13:24:28.633Z,99685.77
2019-05-14T13:26:59.100Z,99674.88
2019-05-14T13:29:30.756Z,99685.23
2019-05-14T13:32:02.191Z,99682.83
2019-05-14T13:34:39.542Z,99680.80
2019-05-14T13:37:13.041Z,99673.18
2019-05-14T13:39:44.253Z,99669.79
2019-05-14T13:42:15.547Z,99664.23
2019-05-14T13:44:47.110Z,99670.16
2019-05-14T13:47:20.377Z,99666.28
2019-05-14T13:49:52.882Z,99671.66
2019-05-14T13:52:25.414Z,99672.17
2019-05-14T13:54:56.699Z,99653.58
2019-05-14T13:57:28.662Z,99665.90
2019-05-14T14:00:01.602Z,99670.02
2019-05-14T14:02:42.732Z,99659.16
2019-05-14T14:05:20.329Z,99648.67
2019-05-14T14:07:52.575Z,99657.09
2019-05-14T14:10:35.504Z,99644.63
2019-05-14T14:13:06.513Z,99647.44
2019-05-14T14:15:38.403Z,99635.17
2019-05-14T14:18:09.896Z,99641.52
2019-05-14T14:20:43.266Z,99635.05
2019-05-14T14:23:21.728Z,99629.33
2019-05-14T14:25:53.737Z,99620.83
2019-05-14T14:28:23.690Z,99612.28
2019-05-14T14:30:55.147Z,99628.26
2019-05-14T14:33:28.934Z,99616.50
2019-05-14T14:36:01.028Z,99614.30
2019-05-14T14:38:34.224Z,99613.62
2019-05-14T14:41:05.804Z,99628.78
2019-05-14T14:43:42.314Z,99628.70
2019-05-14T14:46:13.851Z,99620.08
2019-05-14T14:48:43.178Z,99615.43
2019-05-14T14:51:14.606Z,99628.78
2019-05-14T14:53:59.185Z,99614.39
2019-05-14T14:56:23.316Z,99611.28
2019-05-14T14:58:55.320Z,99606.38
2019-05-14T15:01:30.020Z,99612.73
2019-05-14T15:04:00.496Z,99606.67
2019-05-14T15:06:32.140Z,99611.57
2019-05-14T15:09:04.618Z,99609.55
2019-05-14T15:11:36.107Z,99603.25
2019-05-14T15:14:08.446Z,99604.91
2019-05-14T15:16:39.987Z,99607.02
2019-05-14T15:19:13.653Z,99600.41
2019-05-14T15:21:48.677Z,99604.38
2019-05-14T15:24:20.111Z,99599.88
2019-05-14T15:26:52.425Z,99595.13
2019-05-14T15:29:24.031Z,99592.85
2019-05-14T15:31:55.347Z,99594.97
2019-05-14T15:34:29.612Z,99604.16
2019-05-14T15:37:00.420Z,99601.11
2019-05-14T15:39:32.550Z,99600.61
2019-05-14T15:42:06.342Z,99604.13
2019-05-14T15:44:48.588Z,99594.12
2019-05-14T15:47:11.811Z,99593.12
2019-05-14T15:49:43.814Z,99588.61
2019-05-14T15:52:15.495Z,99581.55
2019-05-14T15:54:50.154Z,99566.09
2019-05-14T15:57:20.977Z,99579.02
2019-05-14T15:59:52.335Z,99575.33
2019-05-14T16:02:24.363Z,99576.59
2019-05-14T16:04:59.192Z,99564.02
2019-05-14T16:07:49.420Z,99572.32
2019-05-14T16:10:21.934Z,99570.19
2019-05-14T16:12:53.467Z,99566.56
2019-05-14T16:15:24.752Z,99565.35
2019-05-14T16:18:07.394Z,99568.95
2019-05-14T16:20:31.011Z,99573.09
2019-05-14T16:23:04.480Z,99570.67
2019-05-14T16:25:37.868Z,99573.49
2019-05-14T16:28:09.287Z,99568.92
2019-05-14T16:30:40.872Z,99568.68
2019-05-14T16:33:13.007Z,99564.02
2019-05-14T16:35:44.758Z,99564.80
2019-05-14T16:38:16.092Z,99563.74
2019-05-14T16:40:48.948Z,99572.73
2019-05-14T16:43:20.666Z,99562.55
2019-05-14T16:45:54.883Z,99570.57
2019-05-14T16:48:29.081Z,99566.97
2019-05-14T16:51:00.927Z,99570.95
2019-05-14T16:53:32.316Z,99568.67
2019-05-14T16:56:03.621Z,99570.91
2019-05-14T16:58:34.951Z,99577.77
2019-05-14T17:01:09.696Z,99570.73
2019-05-14T17:03:41.115Z,99572.38
2019-05-14T17:06:12.962Z,99579.30
2019-05-14T17:08:48.639Z,99580.56
2019-05-14T17:11:20.922Z,99566.66
2019-05-14T17:13:52.645Z,99564.52
2019-05-14T17:16:24.675Z,99570.52
2019-05-14T17:18:59.257Z,99567.72
2019-05-14T17:21:32.031Z,99564.98
2019-05-14T17:24:05.284Z,99555.44
2019-05-14T17:26:38.055Z,99563.78
2019-05-14T17:29:11.425Z,99574.45
2019-05-14T17:31:42.990Z,99567.78
2019-05-14T17:34:14.494Z,99563.02
2019-05-14T17:36:48.213Z,99556.02
2019-05-14T17:39:18.920Z,99554.94
2019-05-14T17:41:50.625Z,99547.80
2019-05-14T17:44:21.850Z,99549.88
2019-05-14T17:46:53.165Z,99547.39
2019-05-14T17:49:25.489Z,99547.03
2019-05-14T17:51:59.746Z,99547.17
2019-05-14T17:54:31.261Z,99541.92
2019-05-14T17:57:02.711Z,99537.03
2019-05-14T17:59:33.890Z,99549.16
2019-05-14T18:02:05.120Z,99545.30
2019-05-14T18:04:36.860Z,99543.98
2019-05-14T18:07:08.641Z,99545.64
2019-05-14T18:09:40.039Z,99541.14
2019-05-14T18:12:12.518Z,99538.55
2019-05-14T18:14:45.201Z,99535.09
2019-05-14T18:17:18.862Z,99539.09
2019-05-14T18:19:49.859Z,99539.66
2019-05-14T18:22:21.253Z,99531.23
2019-05-14T18:24:52.906Z,99529.05
2019-05-14T18:27:25.804Z,99542.31
2019-05-14T18:29:59.196Z,99537.05
2019-05-14T18:32:31.655Z,99532.55
2019-05-14T18:35:13.278Z,99528.31
2019-05-14T18:37:45.034Z,99533.92
2019-05-14T18:40:18.428Z,99530.06
2019-05-14T18:42:49.723Z,99538.19
2019-05-14T18:45:24.583Z,99540.41
2019-05-14T18:47:58.954Z,99530.73
2019-05-14T18:50:29.796Z,99533.63
2019-05-14T18:53:02.476Z,99539.66
2019-05-14T18:55:38.571Z,99541.61
2019-05-14T18:58:10.284Z,99540.80
2019-05-14T19:00:42.170Z,99541.75
2019-05-14T19:03:15.977Z,99542.61
2019-05-14T19:05:48.342Z,99543.59
2019-05-14T19:08:20.989Z,99339.72
2019-05-14T19:10:52.427Z,99541.88
2019-05-14T19:13:23.746Z,99536.44
2019-05-14T19:15:56.252Z,99527.27
2019-05-14T19:18:28.690Z,99531.27
2019-05-14T19:21:01.135Z,99529.69
2019-05-14T19:23:33.794Z,99531.97
2019-05-14T19:26:05.215Z,99525.89
2019-05-14T19:28:38.967Z,99490.37
2019-05-14T19:31:11.138Z,99523.67
2019-05-14T19:33:42.612Z,99517.97
2019-05-14T19:36:14.577Z,99508.84
2019-05-14T19:38:48.076Z,99513.89
2019-05-14T19:41:22.851Z,99508.81
2019-05-14T19:43:53.857Z,99512.71
2019-05-14T19:46:25.365Z,99509.19
2019-05-14T19:48:59.044Z,99504.02
2019-05-14T19:51:32.067Z,99505.27
2019-05-14T19:54:05.109Z,99511.94
2019-05-14T19:56:49.551Z,99506.14
2019-05-14T19:59:10.288Z,99502.08
2019-05-14T20:01:42.274Z,99500.44
2019-05-14T20:04:13.868Z,99496.11
2019-05-14T20:06:46.138Z,99493.18
2019-05-14T20:09:18.002Z,99496.80
2019-05-14T20:11:49.955Z,99494.55
2019-05-14T20:14:21.779Z,99490.63
2019-05-14T20:16:58.193Z,99486.39
2019-05-14T20:19:29.814Z,99491.50
2019-05-14T20:22:01.471Z,99477.64
2019-05-14T20:24:33.029Z,99489.45
2019-05-14T20:27:08.561Z,99486.36
2019-05-14T20:29:38.144Z,99484.65
2019-05-14T20:32:10.610Z,99489.81
2019-05-14T20:34:44.178Z,99481.41
2019-05-14T20:37:18.908Z,99479.28
2019-05-14T20:39:53.335Z,99487.20
2019-05-14T20:42:24.958Z,99479.81
2019-05-14T20:44:58.872Z,99475.15
2019-05-14T20:47:30.576Z,99477.64
2019-05-14T20:50:14.805Z,99480.19
2019-05-14T20:52:48.334Z,99471.50
2019-05-14T20:55:23.389Z,99479.28
2019-05-14T20:57:58.548Z,99480.63
2019-05-14T21:00:29.689Z,99468.88
2019-05-14T21:03:01.532Z,99468.11
2019-05-14T21:05:32.959Z,99473.75
2019-05-14T21:08:04.218Z,99463.78
2019-05-14T21:10:38.489Z,99461.00
2019-05-14T21:13:11.152Z,99465.33
2019-05-14T21:15:43.071Z,99458.17
2019-05-14T21:18:18.759Z,99459.86
2019-05-14T21:20:51.100Z,99455.13
2019-05-14T21:23:22.619Z,99447.71
2019-05-14T21:25:56.944Z,99449.76
2019-05-14T21:28:30.196Z,99450.70
2019-05-14T21:31:10.491Z,99448.52
2019-05-14T21:33:42.363Z,99438.52
2019-05-14T21:36:15.015Z,99451.57
2019-05-14T21:38:49.134Z,99446.37
2019-05-14T21:41:20.712Z,99437.78
2019-05-14T21:43:52.141Z,99439.86
2019-05-14T21:46:23.422Z,99440.17
2019-05-14T21:48:55.079Z,99434.59
2019-05-14T21:51:28.445Z,99433.56
2019-05-14T21:53:59.725Z,99434.03
2019-05-14T21:56:33.048Z,99439.16
2019-05-14T21:59:04.896Z,99431.38
2019-05-14T22:01:38.735Z,99424.30
2019-05-14T22:04:11.675Z,99424.88
2019-05-14T22:06:43.916Z,99409.91
2019-05-14T22:09:15.532Z,99404.11
2019-05-14T22:11:48.603Z,99406.11
2019-05-14T22:14:20.014Z,99418.73
2019-05-14T22:16:51.934Z,99411.28
2019-05-14T22:19:25.968Z,99410.98
2019-05-14T22:21:58.712Z,99409.17
2019-05-14T22:24:30.203Z,99418.30
2019-05-14T22:27:01.508Z,99410.31
2019-05-14T22:29:33.180Z,99407.13
2019-05-14T22:32:04.663Z,99395.02
2019-05-14T22:34:38.519Z,99405.08
2019-05-14T22:37:11.894Z,99399.34
2019-05-14T22:39:43.172Z,99393.30
2019-05-14T22:42:18.910Z,99387.56
2019-05-14T22:44:50.955Z,99392.13
2019-05-14T22:47:22.990Z,99381.13
2019-05-14T22:49:55.031Z,99388.14
2019-05-14T22:52:28.426Z,99382.97
2019-05-14T22:54:59.745Z,99384.21
2019-05-14T22:57:42.194Z,99385.02
2019-05-14T23:00:20.613Z,99398.70
2019-05-14T23:02:49.847Z,99388.50
2019-05-14T23:05:21.584Z,99386.56
2019-05-14T23:07:52.906Z,99392.06
2019-05-14T23:10:24.327Z,99387.86
2019-05-14T23:12:55.810Z,99380.66
2019-05-14T23:15:28.960Z,99384.21
2019-05-14T23:18:01.277Z,99384.78
2019-05-14T23:20:34.649Z,99378.58
2019-05-14T23:23:09.215Z,99375.23
2019-05-14T23:25:41.623Z,99371.30
2019-05-14T23:28:13.401Z,99372.81
2019-05-14T23:30:44.744Z,99371.84
2019-05-14T23:33:18.896Z,99357.48
2019-05-14T23:35:49.374Z,99366.94
2019-05-14T23:38:20.744Z,99359.63
2019-05-14T23:40:52.211Z,99358.15
2019-05-14T23:43:24.126Z,99351.24
2019-05-14T23:45:55.598Z,99353.65
2019-05-14T23:48:26.880Z,99354.06
2019-05-14T23:50:58.546Z,99358.69
2019-05-14T23:53:31.147Z,99349.02
2019-05-14T23:56:02.528Z,99206.38
2019-05-14T23:58:34.400Z,99352.61
